Time;durP1;ratioP1;P1;durP2;ratioP2;P2;SDS_P1;SDS_P2;PMS_P1;PMS_P2;Temp;Humidity;BMP_temperature;BMP_pressure;BME280_temperature;BME280_humidity;BME280_pressure;Samples;Min_cycle;Max_cycle;Signal;HPM_P1;HPM_P2
2023/12/02 00:01:12;;;;;;;4.07;3.77;;;;;;;;;;6258942;28;20300;-68
2023/12/02 00:04:15;;;;;;;3.77;3.50;;;;;;;;;;6258944;28;20531;-69
2023/12/02 00:07:19;;;;;;;4.30;3.83;;;;;;;;;;6259336;28;20565;-69
2023/12/02 00:10:23;;;;;;;3.93;3.50;;;;;;;;;;6258513;28;20354;-69
2023/12/02 00:13:29;;;;;;;3.43;3.23;;;;;;;;;;6274918;28;20291;-69
2023/12/02 00:16:32;;;;;;;4.27;3.87;;;;;;;;;;6271535;28;20443;-68
2023/12/02 00:19:36;;;;;;;3.57;3.20;;;;;;;;;;6283907;28;20580;-68
2023/12/02 00:22:40;;;;;;;3.63;3.33;;;;;;;;;;6282948;28;20584;-69
2023/12/02 00:25:44;;;;;;;4.50;4.10;;;;;;;;;;6283059;28;20298;-68
2023/12/02 00:28:49;;;;;;;6.47;4.70;;;;;;;;;;6282976;28;20479;-69
2023/12/02 00:31:53;;;;;;;4.27;3.87;;;;;;;;;;6282704;28;20309;-70
2023/12/02 00:34:57;;;;;;;4.83;3.60;;;;;;;;;;6281268;28;20311;-69
2023/12/02 00:38:01;;;;;;;4.73;3.70;;;;;;;;;;6282895;28;20291;-70
2023/12/02 00:41:05;;;;;;;3.30;3.20;;;;;;;;;;6282511;28;20290;-69
2023/12/02 00:44:11;;;;;;;3.80;3.60;;;;;;;;;;6282850;28;20617;-69
2023/12/02 00:47:15;;;;;;;9.93;4.80;;;;;;;;;;6282489;28;20606;-71
2023/12/02 00:50:19;;;;;;;12.00;4.97;;;;;;;;;;6260767;28;20306;-69
2023/12/02 00:53:22;;;;;;;4.87;4.40;;;;;;;;;;6241824;28;20299;-69
2023/12/02 00:56:26;;;;;;;3.73;3.20;;;;;;;;;;6257804;28;20299;-68
2023/12/02 00:59:31;;;;;;;3.37;3.17;;;;;;;;;;6258424;28;20303;-68
2023/12/02 01:02:35;;;;;;;3.20;3.03;;;;;;;;;;6257425;28;20286;-69
2023/12/02 01:05:39;;;;;;;3.63;3.43;;;;;;;;;;6257060;28;20308;-69
2023/12/02 01:08:43;;;;;;;5.53;3.90;;;;;;;;;;6256865;28;20635;-70
2023/12/02 01:11:47;;;;;;;4.07;3.37;;;;;;;;;;6256980;28;20301;-70
2023/12/02 01:14:52;;;;;;;3.40;3.20;;;;;;;;;;6282050;28;20286;-69
2023/12/02 01:17:56;;;;;;;3.43;3.23;;;;;;;;;;6280375;28;20298;-71
2023/12/02 01:21:00;;;;;;;3.80;3.60;;;;;;;;;;6281849;28;20306;-69
2023/12/02 01:24:05;;;;;;;3.60;3.30;;;;;;;;;;6281883;28;20303;-70
2023/12/02 01:27:08;;;;;;;3.83;3.43;;;;;;;;;;6250892;28;20323;-69
2023/12/02 01:30:15;;;;;;;3.93;3.67;;;;;;;;;;6261705;28;20296;-69
2023/12/02 01:33:18;;;;;;;5.23;4.23;;;;;;;;;;6279923;28;20286;-69
2023/12/02 01:36:22;;;;;;;3.80;3.40;;;;;;;;;;6281692;28;20336;-68
2023/12/02 01:39:27;;;;;;;3.43;3.23;;;;;;;;;;6281864;28;20343;-68
2023/12/02 01:42:31;;;;;;;7.00;3.93;;;;;;;;;;6281544;28;20299;-71
2023/12/02 01:45:36;;;;;;;3.90;3.37;;;;;;;;;;6286216;28;20306;-69
2023/12/02 01:48:40;;;;;;;4.03;3.17;;;;;;;;;;6272923;28;20298;-69
2023/12/02 01:51:45;;;;;;;3.73;3.17;;;;;;;;;;6231548;28;20304;-69
2023/12/02 01:54:48;;;;;;;4.00;3.53;;;;;;;;;;6234129;28;20319;-68
2023/12/02 01:57:52;;;;;;;7.47;3.50;;;;;;;;;;6232380;28;20301;-70
2023/12/02 02:00:57;;;;;;;3.30;3.20;;;;;;;;;;6247214;28;20345;-70
2023/12/02 02:04:01;;;;;;;4.17;3.80;;;;;;;;;;6256401;28;20304;-71
2023/12/02 02:07:05;;;;;;;6.00;4.40;;;;;;;;;;6229221;28;20293;-70
2023/12/02 02:10:09;;;;;;;7.33;4.13;;;;;;;;;;6231831;28;20516;-69
2023/12/02 02:13:13;;;;;;;10.10;5.30;;;;;;;;;;6245391;28;20299;-72
2023/12/02 02:16:19;;;;;;;5.87;4.00;;;;;;;;;;6254594;28;20300;-69
2023/12/02 02:19:22;;;;;;;2.87;2.73;;;;;;;;;;6255931;28;20290;-67
2023/12/02 02:22:28;;;;;;;2.83;2.73;;;;;;;;;;6255303;28;20291;-68
2023/12/02 02:25:32;;;;;;;3.53;3.33;;;;;;;;;;6255609;28;20312;-68
2023/12/02 02:28:36;;;;;;;4.00;3.63;;;;;;;;;;6255388;28;20445;-68
2023/12/02 02:31:39;;;;;;;4.40;4.00;;;;;;;;;;6254272;28;20588;-70
2023/12/02 02:34:43;;;;;;;2.87;2.77;;;;;;;;;;6253883;28;20283;-68
2023/12/02 02:37:48;;;;;;;3.03;2.93;;;;;;;;;;6255552;28;20281;-69
2023/12/02 02:40:52;;;;;;;3.00;2.90;;;;;;;;;;6255625;28;20303;-70
2023/12/02 02:43:56;;;;;;;2.47;2.37;;;;;;;;;;6255684;28;20324;-69
2023/12/02 02:47:00;;;;;;;2.83;2.73;;;;;;;;;;6255230;28;20303;-69
2023/12/02 02:50:04;;;;;;;2.93;2.67;;;;;;;;;;6246000;28;20304;-69
2023/12/02 02:53:09;;;;;;;2.80;2.60;;;;;;;;;;6255029;28;20299;-68
2023/12/02 02:56:13;;;;;;;2.70;2.60;;;;;;;;;;6255329;28;20303;-70
2023/12/02 02:59:17;;;;;;;2.90;2.80;;;;;;;;;;6270760;28;20322;-68
2023/12/02 03:02:21;;;;;;;5.80;2.80;;;;;;;;;;6254070;28;20299;-71
2023/12/02 03:05:25;;;;;;;2.53;2.50;;;;;;;;;;6254578;28;20299;-70
2023/12/02 03:08:32;;;;;;;3.20;3.00;;;;;;;;;;6255136;28;20442;-69
2023/12/02 03:11:36;;;;;;;2.50;2.50;;;;;;;;;;6253965;28;20303;-70
2023/12/02 03:14:40;;;;;;;3.47;3.27;;;;;;;;;;6229928;28;20311;-70
2023/12/02 03:17:44;;;;;;;3.40;3.30;;;;;;;;;;6210146;28;20318;-69
2023/12/02 03:20:48;;;;;;;2.33;2.23;;;;;;;;;;6279892;28;20477;-71
2023/12/02 03:23:53;;;;;;;2.77;2.67;;;;;;;;;;6279510;28;20321;-70
2023/12/02 03:26:57;;;;;;;4.03;3.67;;;;;;;;;;6277096;28;20637;-69
2023/12/02 03:30:01;;;;;;;3.10;2.90;;;;;;;;;;6287159;28;20318;-70
2023/12/02 03:33:06;;;;;;;3.10;3.00;;;;;;;;;;6278117;28;20243;-70
2023/12/02 03:36:11;;;;;;;3.60;3.40;;;;;;;;;;6260578;28;20298;-68
2023/12/02 03:39:16;;;;;;;3.87;3.57;;;;;;;;;;6279558;28;20576;-69
2023/12/02 03:42:20;;;;;;;4.00;3.70;;;;;;;;;;6279382;28;20556;-68
2023/12/02 03:45:24;;;;;;;3.20;3.10;;;;;;;;;;6278617;28;20301;-69
2023/12/02 03:48:28;;;;;;;2.90;2.80;;;;;;;;;;6277988;28;20542;-68
2023/12/02 03:51:32;;;;;;;3.27;3.07;;;;;;;;;;6254331;28;20294;-70
2023/12/02 03:54:37;;;;;;;2.53;2.50;;;;;;;;;;6254414;28;20302;-70
2023/12/02 03:57:41;;;;;;;2.97;2.93;;;;;;;;;;6254270;28;20313;-70
2023/12/02 04:00:46;;;;;;;3.33;3.17;;;;;;;;;;6254743;28;20299;-69
2023/12/02 04:03:50;;;;;;;6.00;3.87;;;;;;;;;;6262043;28;20488;-71
2023/12/02 04:06:54;;;;;;;2.90;2.80;;;;;;;;;;6267603;28;20299;-69
2023/12/02 04:09:59;;;;;;;2.50;2.40;;;;;;;;;;6256891;28;20398;-69
2023/12/02 04:13:05;;;;;;;3.27;3.00;;;;;;;;;;6273088;28;20294;-68
2023/12/02 04:16:10;;;;;;;3.17;3.03;;;;;;;;;;6283767;28;20314;-70
2023/12/02 04:19:14;;;;;;;3.07;2.90;;;;;;;;;;6274851;28;20306;-68
2023/12/02 04:22:18;;;;;;;2.77;2.67;;;;;;;;;;6258956;28;20303;-72
2023/12/02 04:25:24;;;;;;;2.70;2.60;;;;;;;;;;6258528;28;20578;-69
2023/12/02 04:28:27;;;;;;;3.17;2.97;;;;;;;;;;6258276;28;20290;-70
2023/12/02 04:31:32;;;;;;;2.73;2.70;;;;;;;;;;6250428;28;20302;-71
2023/12/02 04:34:35;;;;;;;3.00;2.70;;;;;;;;;;6256959;28;20247;-72
2023/12/02 04:37:39;;;;;;;2.97;2.87;;;;;;;;;;6278589;28;20516;-68
2023/12/02 04:40:45;;;;;;;2.70;2.60;;;;;;;;;;6282367;28;20298;-69
2023/12/02 04:43:50;;;;;;;2.53;2.53;;;;;;;;;;6282365;28;20583;-70
2023/12/02 04:46:53;;;;;;;3.00;2.70;;;;;;;;;;6283388;28;20306;-68
2023/12/02 04:49:57;;;;;;;2.73;2.60;;;;;;;;;;6257869;28;20311;-69
2023/12/02 04:53:01;;;;;;;2.60;2.50;;;;;;;;;;6257572;28;20496;-70
2023/12/02 04:56:07;;;;;;;3.10;3.00;;;;;;;;;;6258843;28;20295;-69
2023/12/02 04:59:11;;;;;;;2.80;2.60;;;;;;;;;;6257705;28;20302;-70
2023/12/02 05:02:18;;;;;;;2.60;2.50;;;;;;;;;;6257932;28;20299;-69
2023/12/02 05:05:22;;;;;;;2.87;2.77;;;;;;;;;;6257536;28;20599;-69
2023/12/02 05:08:26;;;;;;;2.70;2.50;;;;;;;;;;6257435;28;20304;-70
2023/12/02 05:11:31;;;;;;;5.57;2.90;;;;;;;;;;6275027;28;20297;-69
2023/12/02 05:14:35;;;;;;;2.47;2.47;;;;;;;;;;6281573;28;20296;-69
2023/12/02 05:17:39;;;;;;;3.23;3.03;;;;;;;;;;6281681;28;20290;-68
2023/12/02 05:20:43;;;;;;;2.50;2.40;;;;;;;;;;6281452;28;20570;-69
2023/12/02 05:23:47;;;;;;;2.57;2.47;;;;;;;;;;6280395;28;20591;-70
2023/12/02 05:26:52;;;;;;;2.80;2.70;;;;;;;;;;6279947;28;20554;-68
2023/12/02 05:29:56;;;;;;;3.00;2.90;;;;;;;;;;6281158;28;20294;-69
2023/12/02 05:32:59;;;;;;;2.77;2.67;;;;;;;;;;6279364;28;20298;-70
2023/12/02 05:36:04;;;;;;;3.50;3.30;;;;;;;;;;6281512;28;20293;-69
2023/12/02 05:39:09;;;;;;;2.60;2.60;;;;;;;;;;6267066;28;20314;-69
2023/12/02 05:42:14;;;;;;;2.77;2.67;;;;;;;;;;6256636;28;20291;-69
2023/12/02 05:45:18;;;;;;;2.93;2.80;;;;;;;;;;6256239;28;20295;-70
2023/12/02 05:48:22;;;;;;;2.50;2.50;;;;;;;;;;6255880;28;20302;-69
2023/12/02 05:51:25;;;;;;;2.90;2.90;;;;;;;;;;6256689;28;20298;-71
2023/12/02 05:54:29;;;;;;;2.80;2.70;;;;;;;;;;6256245;28;20231;-69
2023/12/02 05:57:35;;;;;;;2.50;2.50;;;;;;;;;;6256960;28;20351;-69
2023/12/02 06:00:38;;;;;;;2.33;2.33;;;;;;;;;;6256331;28;20610;-69
2023/12/02 06:03:42;;;;;;;2.57;2.50;;;;;;;;;;6256108;28;20582;-69
2023/12/02 06:06:47;;;;;;;3.13;2.37;;;;;;;;;;6256649;28;20470;-70
2023/12/02 06:09:50;;;;;;;2.70;2.60;;;;;;;;;;6259221;28;20331;-69
2023/12/02 06:12:56;;;;;;;2.53;2.47;;;;;;;;;;6280672;28;20321;-69
2023/12/02 06:16:00;;;;;;;2.50;2.40;;;;;;;;;;6280485;28;20294;-70
2023/12/02 06:19:04;;;;;;;2.47;2.37;;;;;;;;;;6280555;28;20294;-69
2023/12/02 06:22:08;;;;;;;2.60;2.50;;;;;;;;;;6280907;28;20294;-69
2023/12/02 06:25:12;;;;;;;2.73;2.60;;;;;;;;;;6278912;28;20629;-69
2023/12/02 06:28:18;;;;;;;2.33;2.33;;;;;;;;;;6279798;28;20301;-69
2023/12/02 06:31:22;;;;;;;2.77;2.57;;;;;;;;;;6280546;28;20290;-70
2023/12/02 06:34:25;;;;;;;2.80;2.70;;;;;;;;;;6277980;28;20618;-70
2023/12/02 06:37:29;;;;;;;2.60;2.50;;;;;;;;;;6280591;28;20295;-68
2023/12/02 06:40:33;;;;;;;2.43;2.33;;;;;;;;;;6280112;28;20631;-68
2023/12/02 06:43:38;;;;;;;2.50;2.40;;;;;;;;;;6280794;28;20297;-69
2023/12/02 06:46:42;;;;;;;2.20;2.20;;;;;;;;;;6280415;28;20658;-69
2023/12/02 06:49:46;;;;;;;2.67;2.50;;;;;;;;;;6262531;28;20290;-69
2023/12/02 06:52:50;;;;;;;2.70;2.50;;;;;;;;;;6255053;28;20314;-68
2023/12/02 06:55:54;;;;;;;2.70;2.70;;;;;;;;;;6255117;28;20295;-69
2023/12/02 06:58:59;;;;;;;2.50;2.50;;;;;;;;;;6255257;28;20498;-69
2023/12/02 07:02:03;;;;;;;2.63;2.53;;;;;;;;;;6279957;28;20313;-69
2023/12/02 07:05:08;;;;;;;2.30;2.30;;;;;;;;;;6279363;28;20305;-69
2023/12/02 07:08:12;;;;;;;2.50;2.50;;;;;;;;;;6279603;28;20629;-70
2023/12/02 07:11:16;;;;;;;2.20;2.20;;;;;;;;;;6265092;28;20322;-69
2023/12/02 07:14:21;;;;;;;2.87;2.73;;;;;;;;;;6255097;28;20298;-71
2023/12/02 07:17:25;;;;;;;2.47;2.47;;;;;;;;;;6255100;28;20289;-69
2023/12/02 07:20:29;;;;;;;2.73;2.67;;;;;;;;;;6254420;28;20316;-68
2023/12/02 07:23:33;;;;;;;2.70;2.60;;;;;;;;;;6254596;28;20291;-70
2023/12/02 07:26:36;;;;;;;2.30;2.30;;;;;;;;;;6254767;28;20306;-70
2023/12/02 07:29:42;;;;;;;2.50;2.43;;;;;;;;;;6251659;28;20300;-70
2023/12/02 07:32:48;;;;;;;2.50;2.50;;;;;;;;;;6261939;28;20490;-70
2023/12/02 07:35:52;;;;;;;2.10;2.10;;;;;;;;;;6253008;28;20294;-70
2023/12/02 07:38:56;;;;;;;2.23;2.23;;;;;;;;;;6254208;28;20356;-68
2023/12/02 07:42:00;;;;;;;2.37;2.23;;;;;;;;;;6254656;28;20587;-69
2023/12/02 07:45:06;;;;;;;1.97;1.97;;;;;;;;;;6254336;28;20294;-69
2023/12/02 07:48:11;;;;;;;2.70;2.60;;;;;;;;;;6256855;28;20305;-69
2023/12/02 07:51:15;;;;;;;2.50;2.50;;;;;;;;;;6259806;28;20302;-69
2023/12/02 07:54:19;;;;;;;2.30;2.30;;;;;;;;;;6258913;28;20301;-70
2023/12/02 07:57:22;;;;;;;2.47;2.27;;;;;;;;;;6259449;28;20294;-69
2023/12/02 08:00:28;;;;;;;2.40;2.40;;;;;;;;;;6259010;28;20394;-68
2023/12/02 08:03:32;;;;;;;2.20;2.20;;;;;;;;;;6259147;28;20328;-69
2023/12/02 08:06:36;;;;;;;2.60;2.60;;;;;;;;;;6265116;28;20297;-69
2023/12/02 08:09:40;;;;;;;2.63;2.63;;;;;;;;;;6261261;28;20303;-69
2023/12/02 08:12:44;;;;;;;2.47;2.37;;;;;;;;;;6283328;28;20297;-70
2023/12/02 08:15:49;;;;;;;2.90;2.77;;;;;;;;;;6283412;28;20393;-70
2023/12/02 08:18:53;;;;;;;3.40;3.10;;;;;;;;;;6283206;28;20313;-71
2023/12/02 08:21:56;;;;;;;2.57;2.47;;;;;;;;;;6283553;28;20293;-69
2023/12/02 08:25:00;;;;;;;2.50;2.40;;;;;;;;;;6283179;28;20541;-68
2023/12/02 08:28:04;;;;;;;2.90;2.80;;;;;;;;;;6282596;28;20301;-69
2023/12/02 08:31:10;;;;;;;2.83;2.73;;;;;;;;;;6283077;28;20285;-69
2023/12/02 08:34:14;;;;;;;2.30;2.30;;;;;;;;;;6280795;28;20625;-69
2023/12/02 08:37:18;;;;;;;2.93;2.83;;;;;;;;;;6282138;28;20310;-70
2023/12/02 08:40:22;;;;;;;2.80;2.70;;;;;;;;;;6282615;28;20300;-69
2023/12/02 08:43:26;;;;;;;2.67;2.57;;;;;;;;;;6274937;28;20298;-70
2023/12/02 08:46:31;;;;;;;2.40;2.40;;;;;;;;;;6282725;28;20313;-69
2023/12/02 08:49:35;;;;;;;2.93;2.73;;;;;;;;;;6272143;28;20293;-69
2023/12/02 08:52:40;;;;;;;2.90;2.80;;;;;;;;;;6282849;28;20336;-68
2023/12/02 08:55:44;;;;;;;2.20;2.20;;;;;;;;;;6275166;28;20492;-68
2023/12/02 08:58:48;;;;;;;2.80;2.70;;;;;;;;;;6282478;28;20293;-69
2023/12/02 09:01:53;;;;;;;2.87;2.77;;;;;;;;;;6276077;28;20294;-70
2023/12/02 09:05:00;;;;;;;2.77;2.70;;;;;;;;;;6260017;28;20296;-68
2023/12/02 09:08:05;;;;;;;3.00;2.80;;;;;;;;;;6261230;28;20289;-69
2023/12/02 09:11:09;;;;;;;2.80;2.70;;;;;;;;;;6260813;28;20454;-69
2023/12/02 09:14:12;;;;;;;2.60;2.50;;;;;;;;;;6261752;28;20471;-69
2023/12/02 09:17:50;;;;;;;2.77;2.67;;;;;;;;;;6262862;28;20309;-69
2023/12/02 09:20:55;;;;;;;2.70;2.60;;;;;;;;;;6281062;28;20306;-69
2023/12/02 09:24:03;;;;;;;2.33;2.33;;;;;;;;;;6281766;28;20302;-70
2023/12/02 09:27:08;;;;;;;3.00;2.80;;;;;;;;;;6281754;28;20294;-69
2023/12/02 09:30:14;;;;;;;2.93;2.83;;;;;;;;;;6280995;28;20479;-71
2023/12/02 09:33:20;;;;;;;2.97;2.80;;;;;;;;;;6279533;28;20661;-69
2023/12/02 09:36:34;;;;;;;2.50;2.50;;;;;;;;;;6281602;28;20290;-69
2023/12/02 09:40:13;;;;;;;2.97;2.77;;;;;;;;;;6281057;28;20478;-70
2023/12/02 09:43:24;;;;;;;2.37;2.27;;;;;;;;;;6281686;28;20603;-70
2023/12/02 09:46:34;;;;;;;2.77;2.67;;;;;;;;;;6281658;28;20286;-71
2023/12/02 09:49:54;;;;;;;2.80;2.70;;;;;;;;;;6264896;28;20294;-69
2023/12/02 09:53:03;;;;;;;2.83;2.73;;;;;;;;;;6255960;28;20498;-71
2023/12/02 09:56:12;;;;;;;2.40;2.30;;;;;;;;;;6254971;28;20301;-68
2023/12/02 09:59:22;;;;;;;2.53;2.53;;;;;;;;;;6263192;28;20307;-69
2023/12/02 10:02:33;;;;;;;2.70;2.60;;;;;;;;;;6256570;28;20303;-69
2023/12/02 10:05:52;;;;;;;3.00;2.80;;;;;;;;;;6255193;28;20300;-71
2023/12/02 10:09:02;;;;;;;2.87;2.77;;;;;;;;;;6255117;28;20291;-69
2023/12/02 10:12:17;;;;;;;2.50;2.40;;;;;;;;;;6277384;28;20647;-70
2023/12/02 10:15:23;;;;;;;3.00;2.80;;;;;;;;;;6269122;28;20499;-68
2023/12/02 10:18:31;;;;;;;2.47;2.37;;;;;;;;;;6280812;28;20306;-69
2023/12/02 10:21:38;;;;;;;3.00;2.90;;;;;;;;;;6280910;28;20310;-70
2023/12/02 10:24:49;;;;;;;2.60;2.60;;;;;;;;;;6267827;28;20233;-71
2023/12/02 10:27:55;;;;;;;2.90;2.70;;;;;;;;;;6280222;28;20303;-69
2023/12/02 10:31:00;;;;;;;2.60;2.53;;;;;;;;;;6280404;28;20305;-68
2023/12/02 10:34:10;;;;;;;2.47;2.37;;;;;;;;;;6278552;28;20319;-70
2023/12/02 10:37:16;;;;;;;2.60;2.50;;;;;;;;;;6254272;28;20307;-69
2023/12/02 10:40:22;;;;;;;2.37;2.37;;;;;;;;;;6243808;28;20310;-70
2023/12/02 10:43:31;;;;;;;2.77;2.67;;;;;;;;;;6278954;28;20445;-69
2023/12/02 10:46:35;;;;;;;3.03;2.93;;;;;;;;;;6295267;28;20303;-71
2023/12/02 10:49:39;;;;;;;2.70;2.60;;;;;;;;;;6239428;28;20295;-69
2023/12/02 10:52:53;;;;;;;3.27;3.00;;;;;;;;;;6233168;28;20301;-72
2023/12/02 10:56:00;;;;;;;3.03;2.93;;;;;;;;;;6279987;28;20295;-70
2023/12/02 10:59:05;;;;;;;2.43;2.33;;;;;;;;;;6279666;28;20291;-69
2023/12/02 11:02:24;;;;;;;2.80;2.70;;;;;;;;;;6280611;28;20302;-68
2023/12/02 11:05:29;;;;;;;3.20;3.00;;;;;;;;;;6205674;28;20305;-68
2023/12/02 11:08:48;;;;;;;3.30;3.10;;;;;;;;;;6223066;28;20299;-68
2023/12/02 11:11:58;;;;;;;2.50;2.40;;;;;;;;;;6234942;28;20296;-68
2023/12/02 11:15:05;;;;;;;3.13;3.03;;;;;;;;;;6230777;28;20291;-67
2023/12/02 11:18:12;;;;;;;2.97;2.87;;;;;;;;;;6230378;28;20597;-68
2023/12/02 11:21:24;;;;;;;2.63;2.53;;;;;;;;;;6230648;28;20487;-69
2023/12/02 11:24:36;;;;;;;2.90;2.80;;;;;;;;;;6232572;28;20422;-70
2023/12/02 11:27:47;;;;;;;3.23;2.87;;;;;;;;;;6235536;28;20299;-70
2023/12/02 11:31:02;;;;;;;3.00;2.90;;;;;;;;;;6235872;28;20301;-72
2023/12/02 11:34:18;;;;;;;3.23;3.03;;;;;;;;;;6233307;28;20295;-68
2023/12/02 11:37:30;;;;;;;3.27;3.00;;;;;;;;;;6235559;28;20304;-67
2023/12/02 11:40:45;;;;;;;2.40;2.30;;;;;;;;;;6235171;28;20303;-66
2023/12/02 11:43:58;;;;;;;3.23;3.03;;;;;;;;;;6235453;28;20280;-67
2023/12/02 11:47:14;;;;;;;2.97;2.90;;;;;;;;;;6235704;28;20292;-67
2023/12/02 11:50:27;;;;;;;2.97;2.83;;;;;;;;;;6234916;28;20303;-69
2023/12/02 11:53:45;;;;;;;3.30;3.20;;;;;;;;;;6223436;28;20275;-70
2023/12/02 11:57:02;;;;;;;4.57;2.60;;;;;;;;;;6283592;28;20295;-69
2023/12/02 12:00:09;;;;;;;3.10;2.90;;;;;;;;;;6283132;28;20303;-70
2023/12/02 12:03:31;;;;;;;3.17;3.00;;;;;;;;;;6283526;28;20305;-68
2023/12/02 12:06:43;;;;;;;3.20;3.07;;;;;;;;;;6283736;28;20303;-69
2023/12/02 12:09:56;;;;;;;3.40;3.20;;;;;;;;;;6280481;28;20334;-68
2023/12/02 12:13:04;;;;;;;3.00;2.90;;;;;;;;;;6258782;28;20652;-69
2023/12/02 12:16:08;;;;;;;2.63;2.63;;;;;;;;;;6257811;28;20302;-70
2023/12/02 12:19:13;;;;;;;3.07;2.97;;;;;;;;;;6259143;28;20410;-69
2023/12/02 12:22:17;;;;;;;3.10;3.00;;;;;;;;;;6259101;28;20314;-69
2023/12/02 12:25:25;;;;;;;3.80;3.50;;;;;;;;;;6258368;28;20502;-72
2023/12/02 12:28:32;;;;;;;3.30;3.10;;;;;;;;;;6257804;28;20216;-67
2023/12/02 12:31:36;;;;;;;3.40;3.20;;;;;;;;;;6259030;28;20480;-68
2023/12/02 12:34:42;;;;;;;3.80;3.50;;;;;;;;;;6255659;28;20300;-68
2023/12/02 12:37:46;;;;;;;3.10;2.80;;;;;;;;;;6258131;28;20381;-69
2023/12/02 12:40:51;;;;;;;3.30;3.10;;;;;;;;;;6258569;28;20299;-69
2023/12/02 12:43:56;;;;;;;3.13;3.00;;;;;;;;;;6258013;28;20301;-69
2023/12/02 12:47:01;;;;;;;3.27;3.07;;;;;;;;;;6258321;28;20302;-69
2023/12/02 12:50:07;;;;;;;3.10;3.00;;;;;;;;;;6257560;28;20318;-70
2023/12/02 12:53:12;;;;;;;3.60;3.20;;;;;;;;;;6257691;28;20295;-70
2023/12/02 12:56:22;;;;;;;3.47;3.27;;;;;;;;;;6258300;28;20340;-71
2023/12/02 12:59:28;;;;;;;3.43;3.03;;;;;;;;;;6263500;28;20232;-69
2023/12/02 13:02:37;;;;;;;3.00;2.90;;;;;;;;;;6258596;28;20306;-72
2023/12/02 13:05:42;;;;;;;3.27;3.17;;;;;;;;;;6257237;28;20295;-68
2023/12/02 13:08:53;;;;;;;3.40;3.13;;;;;;;;;;6257490;28;20370;-68
2023/12/02 13:12:04;;;;;;;3.23;3.03;;;;;;;;;;6279197;28;20286;-70
2023/12/02 13:15:17;;;;;;;3.73;3.43;;;;;;;;;;6282275;28;20295;-70
2023/12/02 13:18:21;;;;;;;3.50;3.40;;;;;;;;;;6281655;28;20302;-68
2023/12/02 13:21:25;;;;;;;3.30;3.20;;;;;;;;;;6238923;28;20235;-69
2023/12/02 13:24:31;;;;;;;3.00;2.90;;;;;;;;;;6242000;28;20299;-69
2023/12/02 13:27:38;;;;;;;3.33;2.90;;;;;;;;;;6257250;28;20561;-69
2023/12/02 13:30:44;;;;;;;3.13;2.90;;;;;;;;;;6257116;28;20288;-70
2023/12/02 13:33:51;;;;;;;3.20;3.00;;;;;;;;;;6255665;28;20282;-70
2023/12/02 13:36:55;;;;;;;3.10;3.00;;;;;;;;;;6257735;28;20311;-68
2023/12/02 13:39:59;;;;;;;3.50;3.30;;;;;;;;;;6247134;28;20305;-69
2023/12/02 13:43:07;;;;;;;3.40;3.30;;;;;;;;;;6232868;28;20480;-68
2023/12/02 13:46:17;;;;;;;3.37;3.27;;;;;;;;;;6232126;28;20347;-69
2023/12/02 13:49:25;;;;;;;3.33;3.13;;;;;;;;;;6239065;28;20307;-69
2023/12/02 13:52:39;;;;;;;2.93;2.73;;;;;;;;;;6217065;28;20468;-68
2023/12/02 13:56:03;;;;;;;3.60;3.13;;;;;;;;;;6225325;28;20308;-69
2023/12/02 13:59:11;;;;;;;3.10;3.00;;;;;;;;;;6231874;28;20600;-70
2023/12/02 14:02:22;;;;;;;3.07;2.97;;;;;;;;;;6232378;28;20311;-69
2023/12/02 14:05:34;;;;;;;2.90;2.80;;;;;;;;;;6254060;28;20323;-69
2023/12/02 14:08:38;;;;;;;3.27;3.00;;;;;;;;;;6256032;28;20295;-70
2023/12/02 14:11:49;;;;;;;3.33;3.23;;;;;;;;;;6250177;28;20305;-68
2023/12/02 14:15:19;;;;;;;3.33;3.03;;;;;;;;;;6255562;28;20300;-69
2023/12/02 14:18:52;;;;;;;3.73;3.50;;;;;;;;;;6255552;28;20301;-70
2023/12/02 14:22:10;;;;;;;3.30;3.10;;;;;;;;;;6255999;28;20382;-68
2023/12/02 14:25:38;;;;;;;3.53;3.20;;;;;;;;;;6254270;28;20296;-68
2023/12/02 14:28:49;;;;;;;3.60;3.40;;;;;;;;;;6255646;28;20302;-69
2023/12/02 14:32:07;;;;;;;3.57;3.30;;;;;;;;;;6256350;28;20295;-70
2023/12/02 14:35:39;;;;;;;3.50;3.30;;;;;;;;;;6253579;28;20289;-69
2023/12/02 14:39:10;;;;;;;3.40;3.30;;;;;;;;;;6252567;28;20353;-68
2023/12/02 14:42:18;;;;;;;3.93;3.73;;;;;;;;;;6230696;28;20300;-70
2023/12/02 14:45:23;;;;;;;3.57;3.27;;;;;;;;;;6230506;28;20486;-71
2023/12/02 14:48:28;;;;;;;3.30;3.13;;;;;;;;;;6236680;28;20298;-70
2023/12/02 14:51:34;;;;;;;3.40;3.20;;;;;;;;;;6226898;28;20612;-70
2023/12/02 14:54:42;;;;;;;4.07;3.77;;;;;;;;;;6211215;28;20614;-69
2023/12/02 14:58:32;;;;;;;3.13;3.03;;;;;;;;;;6254677;28;20300;-71
2023/12/02 15:01:38;;;;;;;3.20;3.00;;;;;;;;;;6249373;28;20287;-69
2023/12/02 15:04:43;;;;;;;3.87;3.30;;;;;;;;;;6254061;28;20286;-69
2023/12/02 15:07:52;;;;;;;3.83;3.40;;;;;;;;;;6254409;28;20298;-69
2023/12/02 15:10:57;;;;;;;3.30;3.20;;;;;;;;;;6254730;28;20310;-69
2023/12/02 15:14:01;;;;;;;3.17;3.03;;;;;;;;;;6265975;28;20299;-70
2023/12/02 15:17:08;;;;;;;3.20;3.10;;;;;;;;;;6258313;28;20577;-69
2023/12/02 15:20:13;;;;;;;3.17;3.07;;;;;;;;;;6257309;28;20487;-72
2023/12/02 15:23:40;;;;;;;3.67;3.37;;;;;;;;;;6260057;28;20327;-68
2023/12/02 15:26:44;;;;;;;4.03;3.13;;;;;;;;;;6254984;28;20325;-69
2023/12/02 15:29:49;;;;;;;3.47;3.37;;;;;;;;;;6255280;28;20310;-69
2023/12/02 15:32:53;;;;;;;3.60;3.40;;;;;;;;;;6256131;28;20306;-70
2023/12/02 15:35:58;;;;;;;3.63;3.40;;;;;;;;;;6277993;28;20305;-70
2023/12/02 15:39:04;;;;;;;3.30;3.20;;;;;;;;;;6278516;28;20302;-69
2023/12/02 15:42:08;;;;;;;3.80;3.60;;;;;;;;;;6278861;28;20627;-69
2023/12/02 15:45:12;;;;;;;3.90;3.70;;;;;;;;;;6278655;28;20306;-69
2023/12/02 15:48:17;;;;;;;3.73;3.33;;;;;;;;;;6273364;28;20302;-70
2023/12/02 15:51:21;;;;;;;3.80;3.43;;;;;;;;;;6241887;28;20289;-67
2023/12/02 15:54:28;;;;;;;4.10;3.90;;;;;;;;;;6244768;28;20588;-70
2023/12/02 15:57:32;;;;;;;3.13;3.03;;;;;;;;;;6254463;28;20318;-70
2023/12/02 16:00:37;;;;;;;4.10;3.80;;;;;;;;;;6254200;28;20321;-71
2023/12/02 16:03:41;;;;;;;4.00;3.63;;;;;;;;;;6251387;28;20606;-71
2023/12/02 16:06:47;;;;;;;6.97;3.97;;;;;;;;;;6261315;28;20299;-69
2023/12/02 16:09:52;;;;;;;3.90;3.53;;;;;;;;;;6257013;28;20295;-69
2023/12/02 16:12:56;;;;;;;4.30;4.00;;;;;;;;;;6261048;28;20481;-69
2023/12/02 16:16:06;;;;;;;4.40;4.10;;;;;;;;;;6274909;28;20306;-70
2023/12/02 16:19:10;;;;;;;4.27;3.97;;;;;;;;;;6282981;28;20428;-70
2023/12/02 16:22:16;;;;;;;4.00;3.80;;;;;;;;;;6283300;28;20310;-70
2023/12/02 16:25:21;;;;;;;3.80;3.50;;;;;;;;;;6282571;28;20500;-71
2023/12/02 16:28:30;;;;;;;3.53;3.33;;;;;;;;;;6282290;28;20634;-70
2023/12/02 16:31:37;;;;;;;5.87;4.00;;;;;;;;;;6282949;28;20294;-67
2023/12/02 16:34:41;;;;;;;4.00;3.70;;;;;;;;;;6280239;28;20302;-69
2023/12/02 16:37:46;;;;;;;3.73;3.53;;;;;;;;;;6282985;28;20385;-68
2023/12/02 16:40:53;;;;;;;4.33;3.93;;;;;;;;;;6282665;28;20307;-68
2023/12/02 16:43:57;;;;;;;4.40;4.10;;;;;;;;;;6282409;28;20298;-69
2023/12/02 16:47:00;;;;;;;3.83;3.63;;;;;;;;;;6282631;28;20610;-70
2023/12/02 16:50:13;;;;;;;4.37;4.00;;;;;;;;;;6261280;28;20314;-69
2023/12/02 16:53:21;;;;;;;5.90;3.80;;;;;;;;;;6257281;28;20483;-68
2023/12/02 16:56:30;;;;;;;8.87;4.70;;;;;;;;;;6257843;28;20295;-71
2023/12/02 16:59:48;;;;;;;4.67;4.20;;;;;;;;;;6257452;28;20291;-69
2023/12/02 17:02:54;;;;;;;4.00;3.60;;;;;;;;;;6232506;28;20295;-70
2023/12/02 17:06:12;;;;;;;4.30;4.07;;;;;;;;;;6239143;28;20322;-69
2023/12/02 17:09:24;;;;;;;4.37;4.07;;;;;;;;;;6232882;28;20303;-69
2023/12/02 17:12:30;;;;;;;3.83;3.50;;;;;;;;;;6233203;28;20302;-70
2023/12/02 17:15:34;;;;;;;5.23;4.20;;;;;;;;;;6232590;28;20331;-69
2023/12/02 17:19:02;;;;;;;4.20;3.80;;;;;;;;;;6232168;28;20300;-70
2023/12/02 17:22:08;;;;;;;4.20;3.90;;;;;;;;;;6231982;28;20527;-69
2023/12/02 17:25:47;;;;;;;3.83;3.63;;;;;;;;;;6232093;28;20319;-70
2023/12/02 17:28:52;;;;;;;4.50;4.10;;;;;;;;;;6231882;28;20603;-70
2023/12/02 17:31:57;;;;;;;4.17;3.97;;;;;;;;;;6232314;28;20453;-68
2023/12/02 17:35:01;;;;;;;5.13;4.63;;;;;;;;;;6229355;28;20473;-70
2023/12/02 17:38:23;;;;;;;4.07;3.87;;;;;;;;;;6231886;28;20303;-69
2023/12/02 17:41:27;;;;;;;4.27;4.00;;;;;;;;;;6232046;28;20328;-69
2023/12/02 17:44:32;;;;;;;4.33;4.13;;;;;;;;;;6232027;28;20600;-68
2023/12/02 17:47:36;;;;;;;3.97;3.73;;;;;;;;;;6232425;28;20294;-68
2023/12/02 17:50:40;;;;;;;4.40;4.10;;;;;;;;;;6251101;28;20613;-70
2023/12/02 17:53:44;;;;;;;4.33;3.93;;;;;;;;;;6222170;28;20325;-68
2023/12/02 17:56:47;;;;;;;4.60;4.20;;;;;;;;;;6220760;28;20295;-68
2023/12/02 17:59:53;;;;;;;4.60;4.30;;;;;;;;;;6228708;28;20301;-68
2023/12/02 18:02:56;;;;;;;5.40;4.30;;;;;;;;;;6239124;28;20335;-69
2023/12/02 18:06:00;;;;;;;4.40;4.07;;;;;;;;;;6256210;28;20301;-69
2023/12/02 18:09:06;;;;;;;4.73;4.20;;;;;;;;;;6256146;28;20294;-67
2023/12/02 18:12:10;;;;;;;4.23;3.83;;;;;;;;;;6259971;28;20305;-68
2023/12/02 18:15:15;;;;;;;4.80;4.40;;;;;;;;;;6280132;28;20301;-69
2023/12/02 18:18:19;;;;;;;5.07;4.20;;;;;;;;;;6279854;28;20309;-70
2023/12/02 18:21:23;;;;;;;4.00;3.70;;;;;;;;;;6280154;28;20369;-69
2023/12/02 18:24:27;;;;;;;4.43;4.03;;;;;;;;;;6280158;28;20302;-70
2023/12/02 18:27:31;;;;;;;4.70;4.17;;;;;;;;;;6279786;28;20302;-68
2023/12/02 18:30:36;;;;;;;5.00;4.50;;;;;;;;;;6279399;28;20305;-68
2023/12/02 18:33:42;;;;;;;3.77;3.60;;;;;;;;;;6278010;28;20324;-69
2023/12/02 18:36:46;;;;;;;4.13;3.70;;;;;;;;;;6279945;28;20298;-70
2023/12/02 18:39:52;;;;;;;4.50;4.10;;;;;;;;;;6279385;28;20294;-70